Terminal Aerodrome Forecast
Issued by NWS

Home | Current Version | Previous Version | Text Only | Print | Product List | Glossary On
Versions: 1 2 3 4 5 6 7 8 9 10 11 12 13 14 15
146
FTUS41 KLWX 051140
TAFMTN
TAF
KMTN 051140Z 0512/0612 02007KT 4SM -DZ BR BKN007 OVC012
     FM051500 04008KT P6SM OVC015
     FM060600 01007KT 3SM SHRA BR OVC007=

USA.gov is the U.S. government's official web portal to all federal, state and local government web resources and services.